Time;durP1;ratioP1;P1;durP2;ratioP2;P2;SDS_P1;SDS_P2;PMS_P1;PMS_P2;Temp;Humidity;BMP_temperature;BMP_pressure;BME280_temperature;BME280_humidity;BME280_pressure;Samples;Min_cycle;Max_cycle;Signal;HPM_P1;HPM_P2
2022/04/14 00:02:23;;;;;;;;;;;13.20;99.90;;;;;;5013558;28;19971;-57
2022/04/14 00:04:48;;;;;;;;;;;13.20;99.90;;;;;;5011396;28;19914;-58
2022/04/14 00:07:14;;;;;;;;;;;13.20;99.90;;;;;;5013287;28;19917;-56
2022/04/14 00:09:41;;;;;;;;;;;13.10;99.90;;;;;;5011446;28;19921;-58
2022/04/14 00:12:07;;;;;;;;;;;13.10;99.90;;;;;;5011760;28;19983;-58
2022/04/14 00:14:33;;;;;;;;;;;13.10;99.90;;;;;;5013726;28;19941;-58
2022/04/14 00:16:58;;;;;;;;;;;13.00;99.90;;;;;;5011959;28;19920;-58
2022/04/14 00:19:24;;;;;;;;;;;13.00;99.90;;;;;;5010496;28;20048;-57
2022/04/14 00:21:50;;;;;;;;;;;13.00;99.90;;;;;;5026359;28;20062;-57
2022/04/14 00:24:15;;;;;;;;;;;12.90;99.90;;;;;;5011818;28;20049;-57
2022/04/14 00:26:44;;;;;;;;;;;12.90;99.90;;;;;;5013718;28;20325;-58
2022/04/14 00:29:11;;;;;;;;;;;12.90;99.90;;;;;;5012372;28;19928;-57
2022/04/14 00:31:37;;;;;;;;;;;12.80;99.90;;;;;;5011179;28;19917;-57
2022/04/14 00:34:02;;;;;;;;;;;12.80;99.90;;;;;;5012105;28;19913;-59
2022/04/14 00:36:28;;;;;;;;;;;12.80;99.90;;;;;;5011031;28;20286;-57
2022/04/14 00:38:54;;;;;;;;;;;12.80;99.90;;;;;;5012184;28;20068;-59
2022/04/14 00:41:19;;;;;;;;;;;12.80;99.90;;;;;;5014128;28;19910;-58
2022/04/14 00:43:50;;;;;;;;;;;12.70;99.90;;;;;;5010531;28;20377;-58
2022/04/14 00:46:15;;;;;;;;;;;12.70;99.90;;;;;;5010456;28;19963;-57
2022/04/14 00:48:41;;;;;;;;;;;12.70;99.90;;;;;;5011017;28;19929;-58
2022/04/14 00:51:07;;;;;;;;;;;12.70;99.90;;;;;;5011190;28;19914;-58
2022/04/14 00:53:32;;;;;;;;;;;12.70;99.90;;;;;;5014290;28;19913;-58
2022/04/14 00:55:58;;;;;;;;;;;12.70;99.90;;;;;;5011678;28;20392;-58
2022/04/14 00:58:24;;;;;;;;;;;12.60;99.90;;;;;;5010154;28;19913;-58
2022/04/14 01:00:49;;;;;;;;;;;12.60;99.90;;;;;;5011686;28;19924;-58
2022/04/14 01:03:15;;;;;;;;;;;12.60;99.90;;;;;;5011311;28;19914;-58
2022/04/14 01:05:42;;;;;;;;;;;12.70;99.90;;;;;;5013441;28;20341;-58
2022/04/14 01:08:08;;;;;;;;;;;12.70;99.90;;;;;;5011914;28;19952;-58
2022/04/14 01:10:34;;;;;;;;;;;12.70;99.90;;;;;;5010512;28;19999;-58
2022/04/14 01:13:00;;;;;;;;;;;12.60;99.90;;;;;;5009701;28;20004;-59
2022/04/14 01:15:26;;;;;;;;;;;12.60;99.90;;;;;;5010556;28;20004;-58
2022/04/14 01:17:51;;;;;;;;;;;12.60;99.90;;;;;;5011884;28;19922;-58
2022/04/14 01:20:18;;;;;;;;;;;12.60;99.90;;;;;;5012895;28;19922;-58
2022/04/14 01:22:56;;;;;;;;;;;12.60;99.90;;;;;;5010292;28;19917;-58
2022/04/14 01:25:23;;;;;;;;;;;12.60;99.90;;;;;;5010730;28;20378;-58
2022/04/14 01:27:50;;;;;;;;;;;12.60;99.90;;;;;;5010325;28;19993;-57
2022/04/14 01:30:15;;;;;;;;;;;12.50;99.90;;;;;;5009930;28;19930;-58
2022/04/14 01:32:41;;;;;;;;;;;12.50;99.90;;;;;;5012227;28;20371;-58
2022/04/14 01:35:06;;;;;;;;;;;12.60;99.90;;;;;;5011572;28;19909;-58
2022/04/14 01:37:32;;;;;;;;;;;12.60;99.90;;;;;;5010106;28;20286;-58
2022/04/14 01:39:57;;;;;;;;;;;12.60;99.90;;;;;;5009712;28;19914;-59
2022/04/14 01:42:23;;;;;;;;;;;12.60;99.90;;;;;;5009689;28;20016;-59
2022/04/14 01:44:48;;;;;;;;;;;12.60;99.90;;;;;;5011398;28;20041;-59
2022/04/14 01:47:14;;;;;;;;;;;12.60;99.90;;;;;;5012476;28;19948;-58
2022/04/14 01:49:39;;;;;;;;;;;12.60;99.90;;;;;;5025310;28;19944;-59
2022/04/14 01:52:05;;;;;;;;;;;12.50;99.90;;;;;;5009623;28;20294;-59
2022/04/14 01:54:30;;;;;;;;;;;12.50;99.90;;;;;;5010558;28;19949;-58
2022/04/14 01:56:56;;;;;;;;;;;12.50;99.90;;;;;;5009997;28;19921;-58
2022/04/14 01:59:21;;;;;;;;;;;12.50;99.90;;;;;;5012716;28;19910;-58
2022/04/14 02:01:47;;;;;;;;;;;12.50;99.90;;;;;;5009896;28;20342;-59
2022/04/14 02:04:12;;;;;;;;;;;12.60;99.90;;;;;;5009631;28;19921;-58
2022/04/14 02:06:38;;;;;;;;;;;12.60;99.90;;;;;;5009357;28;19917;-58
2022/04/14 02:09:03;;;;;;;;;;;12.60;99.90;;;;;;5009139;28;20024;-58
2022/04/14 02:11:29;;;;;;;;;;;12.50;99.90;;;;;;5012743;28;20000;-61
2022/04/14 02:13:54;;;;;;;;;;;12.50;99.90;;;;;;5009660;28;20089;-58
2022/04/14 02:16:20;;;;;;;;;;;12.50;99.90;;;;;;5009631;28;20358;-58
2022/04/14 02:18:45;;;;;;;;;;;12.50;99.90;;;;;;5009361;28;19917;-58
2022/04/14 02:21:11;;;;;;;;;;;12.50;99.90;;;;;;5009452;28;20306;-56
2022/04/14 02:23:36;;;;;;;;;;;12.50;99.90;;;;;;5010543;28;19921;-56
2022/04/14 02:26:02;;;;;;;;;;;12.50;99.90;;;;;;5009421;28;19917;-57
2022/04/14 02:28:27;;;;;;;;;;;12.40;99.90;;;;;;5008813;28;19929;-58
2022/04/14 02:30:53;;;;;;;;;;;12.40;99.90;;;;;;5008949;28;19914;-58
2022/04/14 02:33:18;;;;;;;;;;;12.40;99.90;;;;;;5009291;28;19920;-58
2022/04/14 02:35:44;;;;;;;;;;;12.40;99.90;;;;;;5011264;28;19910;-57
2022/04/14 02:38:10;;;;;;;;;;;12.40;99.90;;;;;;5010116;28;19917;-57
2022/04/14 02:40:35;;;;;;;;;;;12.30;99.90;;;;;;5008770;28;19920;-58
2022/04/14 02:43:01;;;;;;;;;;;12.30;99.90;;;;;;5008329;28;19937;-59
2022/04/14 02:45:26;;;;;;;;;;;12.30;99.90;;;;;;5008637;28;19952;-60
2022/04/14 02:47:53;;;;;;;;;;;12.30;99.90;;;;;;5009494;28;19961;-58
2022/04/14 02:50:20;;;;;;;;;;;12.30;99.90;;;;;;5011259;28;19921;-58
2022/04/14 02:52:49;;;;;;;;;;;12.30;99.90;;;;;;5008900;28;20355;-59
2022/04/14 02:55:14;;;;;;;;;;;12.30;99.90;;;;;;5008097;28;20000;-58
2022/04/14 02:57:40;;;;;;;;;;;12.30;99.90;;;;;;5008308;28;20009;-59
2022/04/14 03:00:09;;;;;;;;;;;12.30;99.90;;;;;;5008906;28;19921;-58
2022/04/14 03:02:35;;;;;;;;;;;12.30;99.90;;;;;;5011171;28;20382;-57
2022/04/14 03:05:02;;;;;;;;;;;12.30;99.90;;;;;;5009923;28;19948;-58
2022/04/14 03:07:28;;;;;;;;;;;12.30;99.90;;;;;;5008398;28;19913;-59
2022/04/14 03:09:53;;;;;;;;;;;12.30;99.90;;;;;;5007850;28;20390;-58
2022/04/14 03:12:19;;;;;;;;;;;12.30;99.90;;;;;;5008464;28;19921;-58
2022/04/14 03:14:46;;;;;;;;;;;12.30;99.90;;;;;;5010528;28;19909;-58
2022/04/14 03:17:11;;;;;;;;;;;12.20;99.90;;;;;;5010125;28;19921;-57
2022/04/14 03:19:37;;;;;;;;;;;12.30;99.90;;;;;;5007540;28;19922;-58
2022/04/14 03:22:02;;;;;;;;;;;12.30;99.90;;;;;;5023269;28;19967;-58
2022/04/14 03:24:28;;;;;;;;;;;12.30;99.90;;;;;;5007991;28;19922;-58
2022/04/14 03:26:53;;;;;;;;;;;12.30;99.90;;;;;;5009005;28;19914;-58
2022/04/14 03:29:19;;;;;;;;;;;12.30;99.90;;;;;;5010831;28;20253;-59
2022/04/14 03:31:44;;;;;;;;;;;12.30;99.90;;;;;;5007951;28;20004;-57
2022/04/14 03:34:10;;;;;;;;;;;12.30;99.90;;;;;;5008017;28;19939;-58
2022/04/14 03:36:35;;;;;;;;;;;12.20;99.90;;;;;;5007428;28;19918;-58
2022/04/14 03:39:00;;;;;;;;;;;12.20;99.90;;;;;;5007971;28;19917;-58
2022/04/14 03:41:26;;;;;;;;;;;12.20;99.90;;;;;;5010227;28;19910;-58
2022/04/14 03:43:51;;;;;;;;;;;12.20;99.90;;;;;;5008106;28;19936;-57
2022/04/14 03:46:19;;;;;;;;;;;12.20;99.90;;;;;;5007907;28;19917;-56
2022/04/14 03:48:47;;;;;;;;;;;12.10;99.90;;;;;;5007772;28;19921;-58
2022/04/14 03:51:16;;;;;;;;;;;12.10;99.90;;;;;;5007481;28;19914;-58
2022/04/14 03:53:42;;;;;;;;;;;12.10;99.90;;;;;;5009837;28;19913;-57
2022/04/14 03:56:08;;;;;;;;;;;12.10;99.90;;;;;;5008952;28;19916;-54
2022/04/14 03:58:33;;;;;;;;;;;12.00;99.90;;;;;;5007263;28;19913;-57
2022/04/14 04:00:59;;;;;;;;;;;12.00;99.90;;;;;;5007245;28;19918;-58
2022/04/14 04:03:24;;;;;;;;;;;12.00;99.90;;;;;;5007218;28;20427;-58
2022/04/14 04:05:50;;;;;;;;;;;12.00;99.90;;;;;;5008690;28;20672;-58
2022/04/14 04:08:16;;;;;;;;;;;12.00;99.90;;;;;;5009247;28;19917;-57
2022/04/14 04:10:41;;;;;;;;;;;12.00;99.90;;;;;;5006396;28;19929;-55
2022/04/14 04:13:07;;;;;;;;;;;12.00;99.90;;;;;;5007164;28;19940;-58
2022/04/14 04:15:32;;;;;;;;;;;12.00;99.90;;;;;;5007442;28;19913;-57
2022/04/14 04:17:58;;;;;;;;;;;12.00;99.90;;;;;;5007042;28;19955;-58
2022/04/14 04:20:25;;;;;;;;;;;12.00;99.90;;;;;;5009471;28;19928;-57
2022/04/14 04:22:50;;;;;;;;;;;12.00;99.90;;;;;;5006441;28;19917;-54
2022/04/14 04:25:16;;;;;;;;;;;12.00;99.90;;;;;;5006985;28;19920;-57
2022/04/14 04:27:41;;;;;;;;;;;12.00;99.90;;;;;;5006915;28;20377;-58
2022/04/14 04:30:07;;;;;;;;;;;12.00;99.90;;;;;;5007283;28;19926;-58
2022/04/14 04:32:33;;;;;;;;;;;12.00;99.90;;;;;;5009562;28;20367;-59
2022/04/14 04:34:59;;;;;;;;;;;12.00;99.90;;;;;;5007137;28;19917;-59
2022/04/14 04:37:25;;;;;;;;;;;11.90;99.90;;;;;;5006793;28;19917;-57
2022/04/14 04:39:50;;;;;;;;;;;11.90;99.90;;;;;;5007275;28;19913;-57
2022/04/14 04:42:16;;;;;;;;;;;11.80;99.90;;;;;;5007192;28;19924;-57
2022/04/14 04:44:41;;;;;;;;;;;11.80;99.90;;;;;;5009547;28;19914;-57
2022/04/14 04:47:07;;;;;;;;;;;11.70;99.90;;;;;;5009044;28;19916;-57
2022/04/14 04:49:32;;;;;;;;;;;11.80;99.90;;;;;;5010076;28;20394;-58
2022/04/14 04:51:59;;;;;;;;;;;11.70;99.90;;;;;;5010935;28;20337;-58
2022/04/14 04:54:25;;;;;;;;;;;11.70;99.90;;;;;;5010984;28;19996;-55
2022/04/14 04:56:51;;;;;;;;;;;11.70;99.90;;;;;;5012495;28;19961;-56
2022/04/14 04:59:17;;;;;;;;;;;11.70;99.90;;;;;;5013297;28;19909;-58
2022/04/14 05:01:42;;;;;;;;;;;11.70;99.90;;;;;;5010460;28;19917;-57
2022/04/14 05:04:10;;;;;;;;;;;11.80;99.90;;;;;;5010369;28;19920;-59
2022/04/14 05:06:35;;;;;;;;;;;11.80;99.90;;;;;;5010383;28;19924;-57
2022/04/14 05:09:01;;;;;;;;;;;11.80;99.90;;;;;;5010940;28;19922;-58
2022/04/14 05:11:26;;;;;;;;;;;11.80;99.90;;;;;;5010475;28;20272;-58
2022/04/14 05:13:52;;;;;;;;;;;11.80;99.90;;;;;;5010482;28;20336;-58
2022/04/14 05:16:17;;;;;;;;;;;11.80;99.90;;;;;;5010447;28;19914;-58
2022/04/14 05:18:43;;;;;;;;;;;11.80;99.90;;;;;;5010448;28;19937;-58
2022/04/14 05:21:08;;;;;;;;;;;11.80;99.90;;;;;;5010504;28;19968;-58
2022/04/14 05:23:34;;;;;;;;;;;11.80;99.90;;;;;;5012896;28;20370;-58
2022/04/14 05:25:59;;;;;;;;;;;11.80;99.90;;;;;;5010867;28;19996;-58
2022/04/14 05:28:25;;;;;;;;;;;11.80;99.90;;;;;;5010269;28;20298;-58
2022/04/14 05:30:51;;;;;;;;;;;11.80;99.90;;;;;;5009809;28;19917;-58
2022/04/14 05:33:16;;;;;;;;;;;11.80;99.90;;;;;;5010190;28;19918;-58
2022/04/14 05:35:44;;;;;;;;;;;11.70;99.90;;;;;;5012179;28;19910;-58
2022/04/14 05:38:09;;;;;;;;;;;11.70;99.90;;;;;;5011139;28;19952;-57
2022/04/14 05:40:35;;;;;;;;;;;11.70;99.90;;;;;;5009930;28;19914;-58
2022/04/14 05:43:00;;;;;;;;;;;11.60;99.90;;;;;;5010170;28;19913;-58
2022/04/14 05:45:26;;;;;;;;;;;11.70;99.90;;;;;;5009676;28;19945;-58
2022/04/14 05:47:51;;;;;;;;;;;11.70;99.90;;;;;;5010911;28;20301;-57
2022/04/14 05:50:17;;;;;;;;;;;11.60;99.90;;;;;;5011810;28;20305;-59
2022/04/14 05:52:42;;;;;;;;;;;11.60;99.90;;;;;;5009323;28;19917;-59
2022/04/14 05:55:08;;;;;;;;;;;11.60;99.90;;;;;;5009770;28;19983;-58
2022/04/14 05:57:34;;;;;;;;;;;11.60;99.90;;;;;;5009944;28;20004;-58
2022/04/14 05:59:59;;;;;;;;;;;11.70;99.90;;;;;;5009792;28;20008;-55
2022/04/14 06:02:26;;;;;;;;;;;11.70;99.90;;;;;;5012688;28;19913;-57
2022/04/14 06:04:52;;;;;;;;;;;11.70;99.90;;;;;;5009379;28;19922;-56
2022/04/14 06:07:17;;;;;;;;;;;11.80;99.90;;;;;;5009626;28;19917;-58
2022/04/14 06:09:43;;;;;;;;;;;11.80;99.90;;;;;;5009159;28;19949;-58
2022/04/14 06:12:09;;;;;;;;;;;11.90;99.90;;;;;;5009532;28;19997;-57
2022/04/14 06:14:34;;;;;;;;;;;11.90;99.90;;;;;;5012721;28;19914;-57
2022/04/14 06:17:00;;;;;;;;;;;11.90;99.90;;;;;;5009799;28;20008;-56
2022/04/14 06:19:25;;;;;;;;;;;12.00;99.90;;;;;;5008575;28;19921;-58
2022/04/14 06:21:51;;;;;;;;;;;12.00;99.90;;;;;;5009444;28;19964;-57
2022/04/14 06:24:17;;;;;;;;;;;12.00;99.90;;;;;;5008923;28;19971;-58
2022/04/14 06:26:42;;;;;;;;;;;12.00;99.90;;;;;;5011583;28;19913;-58
2022/04/14 06:29:08;;;;;;;;;;;12.10;99.90;;;;;;5010032;28;19918;-57
2022/04/14 06:31:35;;;;;;;;;;;12.10;99.90;;;;;;5008753;28;20366;-58
2022/04/14 06:34:02;;;;;;;;;;;12.20;99.90;;;;;;5008698;28;19921;-57
2022/04/14 06:36:27;;;;;;;;;;;12.20;99.90;;;;;;5009191;28;20462;-57
2022/04/14 06:38:53;;;;;;;;;;;12.30;99.90;;;;;;5009882;28;19964;-56
2022/04/14 06:41:18;;;;;;;;;;;12.40;99.90;;;;;;5011066;28;19913;-56
2022/04/14 06:43:45;;;;;;;;;;;12.60;99.90;;;;;;5017072;28;20376;-54
2022/04/14 06:46:10;;;;;;;;;;;12.60;99.90;;;;;;5016203;28;19969;-56
2022/04/14 06:48:36;;;;;;;;;;;12.70;99.90;;;;;;5015102;28;19960;-58
2022/04/14 06:51:02;;;;;;;;;;;12.60;99.90;;;;;;5014727;28;19944;-58
2022/04/14 06:53:27;;;;;;;;;;;12.70;99.90;;;;;;5012491;28;19916;-57
2022/04/14 06:55:53;;;;;;;;;;;12.70;99.90;;;;;;5008093;28;20378;-60
2022/04/14 06:58:19;;;;;;;;;;;12.80;99.90;;;;;;5009208;28;20079;-60
2022/04/14 07:00:45;;;;;;;;;;;12.90;99.90;;;;;;5007702;28;19918;-60
2022/04/14 07:03:11;;;;;;;;;;;13.00;99.90;;;;;;5018735;28;19921;-60
2022/04/14 07:05:36;;;;;;;;;;;13.00;99.90;;;;;;5021456;28;19937;-60
2022/04/14 07:08:02;;;;;;;;;;;13.10;99.90;;;;;;5018844;28;19913;-61
2022/04/14 07:10:27;;;;;;;;;;;13.10;99.90;;;;;;5011932;28;20020;-60
2022/04/14 07:12:53;;;;;;;;;;;13.20;99.90;;;;;;5007824;28;19913;-61
2022/04/14 07:15:18;;;;;;;;;;;13.30;99.90;;;;;;5007752;28;20327;-60
2022/04/14 07:17:44;;;;;;;;;;;13.30;99.90;;;;;;5009963;28;20329;-60
2022/04/14 07:20:10;;;;;;;;;;;13.30;99.90;;;;;;5009624;28;19926;-59
2022/04/14 07:22:42;;;;;;;;;;;13.40;99.90;;;;;;5019639;28;19913;-60
2022/04/14 07:25:07;;;;;;;;;;;13.40;99.90;;;;;;5014673;28;20024;-59
2022/04/14 07:27:33;;;;;;;;;;;13.40;99.90;;;;;;5007698;28;20012;-60
2022/04/14 07:29:58;;;;;;;;;;;13.40;99.90;;;;;;5003677;28;19944;-59
2022/04/14 07:32:25;;;;;;;;;;;13.40;99.90;;;;;;5010127;28;19947;-58
2022/04/14 07:34:51;;;;;;;;;;;13.40;99.90;;;;;;5007285;28;19965;-60
2022/04/14 07:37:16;;;;;;;;;;;13.50;99.90;;;;;;5006900;28;19913;-59
2022/04/14 07:39:42;;;;;;;;;;;13.40;99.90;;;;;;5006876;28;19921;-60
2022/04/14 07:42:07;;;;;;;;;;;13.50;99.90;;;;;;5006842;28;19918;-60
2022/04/14 07:44:33;;;;;;;;;;;13.50;99.90;;;;;;5008378;28;19976;-59
2022/04/14 07:46:59;;;;;;;;;;;13.50;99.90;;;;;;5007568;28;19954;-59
2022/04/14 07:49:27;;;;;;;;;;;13.60;99.90;;;;;;5007505;28;19927;-61
2022/04/14 07:51:55;;;;;;;;;;;13.50;99.90;;;;;;5006575;28;20016;-60
2022/04/14 07:54:21;;;;;;;;;;;13.50;99.90;;;;;;5006689;28;19949;-59
2022/04/14 07:56:47;;;;;;;;;;;13.50;99.90;;;;;;5007895;28;19913;-58
2022/04/14 07:59:12;;;;;;;;;;;13.50;99.90;;;;;;5007912;28;19921;-60
2022/04/14 08:01:38;;;;;;;;;;;13.50;99.90;;;;;;5020385;28;19945;-59
2022/04/14 08:04:03;;;;;;;;;;;13.50;99.90;;;;;;5005455;28;19929;-59
2022/04/14 08:06:31;;;;;;;;;;;13.50;99.90;;;;;;5007259;28;20005;-60
2022/04/14 08:08:56;;;;;;;;;;;13.50;99.90;;;;;;5006479;28;19929;-59
2022/04/14 08:11:22;;;;;;;;;;;13.50;99.90;;;;;;5009062;28;19920;-59
2022/04/14 08:13:47;;;;;;;;;;;13.50;99.90;;;;;;5006759;28;19921;-59
2022/04/14 08:16:13;;;;;;;;;;;13.60;99.90;;;;;;5005959;28;20030;-61
2022/04/14 08:18:40;;;;;;;;;;;13.60;99.90;;;;;;5006344;28;19917;-59
2022/04/14 08:21:06;;;;;;;;;;;13.70;99.90;;;;;;5006550;28;20457;-59
2022/04/14 08:23:32;;;;;;;;;;;13.70;99.90;;;;;;5011454;28;19913;-60
2022/04/14 08:25:58;;;;;;;;;;;13.80;99.90;;;;;;5010781;28;20037;-59
2022/04/14 08:28:24;;;;;;;;;;;13.80;99.90;;;;;;5009590;28;20095;-59
2022/04/14 08:30:49;;;;;;;;;;;14.00;99.90;;;;;;5006032;28;19925;-59
2022/04/14 08:33:18;;;;;;;;;;;14.00;99.90;;;;;;5010039;28;19924;-60
2022/04/14 08:35:44;;;;;;;;;;;14.10;99.90;;;;;;5011506;28;19920;-59
2022/04/14 08:38:10;;;;;;;;;;;14.10;99.90;;;;;;5011366;28;19924;-60
2022/04/14 08:40:40;;;;;;;;;;;14.20;99.90;;;;;;5009810;28;19913;-60
2022/04/14 08:43:09;;;;;;;;;;;14.30;99.90;;;;;;5009769;28;19964;-60
2022/04/14 08:45:36;;;;;;;;;;;14.30;99.90;;;;;;5007541;28;20334;-58
2022/04/14 08:48:02;;;;;;;;;;;14.30;99.90;;;;;;5009767;28;19914;-60
2022/04/14 08:50:28;;;;;;;;;;;14.30;99.90;;;;;;5012008;28;19925;-60
2022/04/14 08:52:54;;;;;;;;;;;14.40;99.90;;;;;;5015249;28;19920;-62
2022/04/14 08:55:19;;;;;;;;;;;14.40;99.90;;;;;;5009761;28;19914;-61
2022/04/14 08:57:45;;;;;;;;;;;14.40;99.90;;;;;;5009100;28;19913;-59
2022/04/14 09:00:12;;;;;;;;;;;14.50;99.90;;;;;;5009518;28;19918;-59
2022/04/14 09:02:38;;;;;;;;;;;14.60;99.90;;;;;;5009489;28;20443;-58
2022/04/14 09:05:04;;;;;;;;;;;14.60;99.90;;;;;;5012278;28;19913;-60
2022/04/14 09:07:29;;;;;;;;;;;14.60;99.90;;;;;;5009491;28;19913;-58
2022/04/14 09:09:55;;;;;;;;;;;14.70;99.90;;;;;;5009072;28;20452;-59
2022/04/14 09:12:20;;;;;;;;;;;14.70;99.90;;;;;;5010701;28;19921;-58
2022/04/14 09:14:46;;;;;;;;;;;14.70;99.90;;;;;;5010442;28;19914;-60
2022/04/14 09:17:12;;;;;;;;;;;14.70;99.90;;;;;;5011221;28;19940;-60
2022/04/14 09:19:38;;;;;;;;;;;14.80;99.90;;;;;;5009305;28;19924;-59
2022/04/14 09:22:07;;;;;;;;;;;14.80;99.90;;;;;;5009108;28;19941;-58
2022/04/14 09:24:52;;;;;;;;;;;14.80;99.90;;;;;;5009631;28;19917;-59
2022/04/14 09:27:31;;;;;;;;;;;14.90;99.90;;;;;;5009410;28;20004;-60
2022/04/14 09:29:58;;;;;;;;;;;14.90;99.90;;;;;;5008274;28;20009;-60
2022/04/14 09:32:34;;;;;;;;;;;15.00;99.90;;;;;;5011533;28;19924;-60
2022/04/14 09:35:20;;;;;;;;;;;15.20;99.90;;;;;;5009094;28;19914;-60
2022/04/14 09:37:45;;;;;;;;;;;15.20;99.90;;;;;;5008586;28;19917;-59
2022/04/14 09:40:12;;;;;;;;;;;15.20;99.90;;;;;;5008334;28;19914;-60
2022/04/14 09:42:39;;;;;;;;;;;15.20;99.90;;;;;;5008883;28;19913;-60
2022/04/14 09:45:21;;;;;;;;;;;15.20;99.90;;;;;;5008780;28;19920;-57
2022/04/14 09:47:47;;;;;;;;;;;15.30;99.90;;;;;;5009347;28;19913;-57
2022/04/14 09:50:22;;;;;;;;;;;15.40;99.90;;;;;;5025545;28;19933;-59
2022/04/14 09:53:07;;;;;;;;;;;15.30;99.90;;;;;;5013523;28;19913;-59
2022/04/14 09:55:37;;;;;;;;;;;15.30;99.90;;;;;;5014696;28;19922;-59
2022/04/14 09:58:11;;;;;;;;;;;15.40;99.90;;;;;;5009730;28;19924;-60
2022/04/14 10:00:43;;;;;;;;;;;15.40;99.90;;;;;;5008950;28;19917;-60
2022/04/14 10:03:09;;;;;;;;;;;15.40;99.90;;;;;;5009942;28;19949;-58
2022/04/14 10:05:35;;;;;;;;;;;15.50;99.90;;;;;;5012337;28;19928;-59
2022/04/14 10:08:01;;;;;;;;;;;15.50;99.90;;;;;;5010069;28;19909;-61
2022/04/14 10:10:26;;;;;;;;;;;15.50;99.90;;;;;;5009114;28;20462;-60
2022/04/14 10:13:01;;;;;;;;;;;15.50;99.90;;;;;;5009284;28;20330;-60
2022/04/14 10:15:27;;;;;;;;;;;15.50;99.90;;;;;;5009270;28;20382;-60
2022/04/14 10:17:53;;;;;;;;;;;15.50;99.90;;;;;;5009984;28;19922;-60
2022/04/14 10:20:20;;;;;;;;;;;15.50;99.90;;;;;;5011874;28;20014;-60
2022/04/14 10:22:46;;;;;;;;;;;15.50;99.90;;;;;;5008217;28;20267;-60
2022/04/14 10:25:13;;;;;;;;;;;15.60;99.90;;;;;;5009633;28;19913;-59
2022/04/14 10:27:39;;;;;;;;;;;15.50;99.90;;;;;;5008558;28;19917;-61
2022/04/14 10:30:05;;;;;;;;;;;15.50;99.90;;;;;;5009040;28;19928;-60
2022/04/14 10:32:32;;;;;;;;;;;15.50;99.90;;;;;;5012707;28;19910;-61
2022/04/14 10:34:59;;;;;;;;;;;15.60;99.90;;;;;;5010944;28;19932;-60
2022/04/14 10:37:30;;;;;;;;;;;15.60;99.90;;;;;;5008572;28;19914;-60
2022/04/14 10:39:56;;;;;;;;;;;15.60;99.90;;;;;;5008620;28;19913;-60
2022/04/14 10:42:29;;;;;;;;;;;15.60;99.90;;;;;;5009214;28;20438;-59
2022/04/14 10:44:55;;;;;;;;;;;15.70;99.90;;;;;;5009725;28;19921;-60
2022/04/14 10:47:39;;;;;;;;;;;15.70;99.90;;;;;;5011198;28;19910;-60
2022/04/14 10:50:17;;;;;;;;;;;15.70;99.90;;;;;;5011181;28;19921;-59
2022/04/14 10:52:59;;;;;;;;;;;15.70;99.90;;;;;;5008055;28;19917;-59
2022/04/14 10:55:54;;;;;;;;;;;15.90;99.90;;;;;;5008401;28;19913;-59
2022/04/14 10:58:28;;;;;;;;;;;15.90;99.90;;;;;;5007993;28;19917;-60
2022/04/14 11:00:54;;;;;;;;;;;16.00;99.90;;;;;;5008435;28;19913;-60
2022/04/14 11:03:27;;;;;;;;;;;15.90;99.90;;;;;;5008366;28;19921;-60
2022/04/14 11:05:52;;;;;;;;;;;16.00;99.90;;;;;;5024976;28;19968;-60
2022/04/14 11:08:31;;;;;;;;;;;16.10;99.90;;;;;;5010068;28;19918;-61
2022/04/14 11:11:07;;;;;;;;;;;16.10;99.90;;;;;;5008620;28;19917;-60
2022/04/14 11:13:51;;;;;;;;;;;16.10;99.90;;;;;;5008395;28;19913;-59
2022/04/14 11:16:35;;;;;;;;;;;16.10;99.90;;;;;;5008086;28;20074;-60
2022/04/14 11:19:18;;;;;;;;;;;16.30;99.90;;;;;;5007761;28;19913;-60
2022/04/14 11:21:52;;;;;;;;;;;16.40;99.90;;;;;;5007446;28;20008;-60
2022/04/14 11:24:18;;;;;;;;;;;16.50;99.90;;;;;;5007606;28;19921;-62
2022/04/14 11:26:45;;;;;;;;;;;16.60;99.90;;;;;;5010247;28;20302;-60
2022/04/14 11:29:11;;;;;;;;;;;16.70;99.90;;;;;;5008823;28;19918;-61
2022/04/14 11:31:43;;;;;;;;;;;16.70;99.90;;;;;;5007273;28;19968;-61
2022/04/14 11:34:09;;;;;;;;;;;16.70;99.90;;;;;;5007383;28;19914;-61
2022/04/14 11:36:40;;;;;;;;;;;16.80;99.90;;;;;;5007205;28;19964;-60
2022/04/14 11:39:18;;;;;;;;;;;17.00;99.90;;;;;;5007566;28;20397;-60
2022/04/14 11:41:45;;;;;;;;;;;17.00;99.90;;;;;;5009699;28;19914;-60
2022/04/14 11:44:11;;;;;;;;;;;17.00;99.90;;;;;;5008620;28;19916;-61
2022/04/14 11:46:39;;;;;;;;;;;17.10;99.90;;;;;;5007147;28;19917;-60
2022/04/14 11:49:06;;;;;;;;;;;17.10;99.90;;;;;;5022582;28;19917;-60
2022/04/14 11:51:31;;;;;;;;;;;17.20;99.90;;;;;;5006907;28;19921;-59
2022/04/14 11:53:57;;;;;;;;;;;17.30;99.90;;;;;;5007630;28;19914;-60
2022/04/14 11:56:25;;;;;;;;;;;17.40;99.90;;;;;;5010122;28;20071;-60
2022/04/14 11:58:51;;;;;;;;;;;17.40;99.90;;;;;;5007200;28;20389;-60
2022/04/14 12:01:17;;;;;;;;;;;17.50;99.90;;;;;;5006652;28;19937;-60
2022/04/14 12:03:43;;;;;;;;;;;17.50;99.90;;;;;;5007319;28;20029;-59
2022/04/14 12:06:14;;;;;;;;;;;17.60;99.90;;;;;;5007150;28;19984;-59
2022/04/14 12:08:39;;;;;;;;;;;17.70;99.90;;;;;;5009092;28;19928;-60
2022/04/14 12:11:12;;;;;;;;;;;17.70;99.90;;;;;;5008387;28;19913;-60
2022/04/14 12:13:38;;;;;;;;;;;17.80;99.90;;;;;;5007249;28;20421;-60
2022/04/14 12:16:07;;;;;;;;;;;17.70;99.90;;;;;;5006914;28;19913;-57
2022/04/14 12:18:34;;;;;;;;;;;17.70;99.90;;;;;;5007193;28;19992;-60
2022/04/14 12:20:59;;;;;;;;;;;17.70;99.90;;;;;;5006775;28;19992;-60
2022/04/14 12:23:26;;;;;;;;;;;17.60;99.90;;;;;;5009551;28;20393;-60
2022/04/14 12:25:54;;;;;;;;;;;17.60;99.90;;;;;;5007198;28;20338;-60
2022/04/14 12:28:19;;;;;;;;;;;17.50;99.90;;;;;;5006713;28;19936;-60
2022/04/14 12:30:45;;;;;;;;;;;17.60;99.90;;;;;;5008369;28;20247;-60
2022/04/14 12:33:10;;;;;;;;;;;17.60;99.90;;;;;;5006413;28;19921;-60
2022/04/14 12:35:37;;;;;;;;;;;17.70;99.90;;;;;;5008074;28;19922;-60
2022/04/14 12:38:16;;;;;;;;;;;17.80;99.90;;;;;;5013719;28;19917;-60
2022/04/14 12:40:54;;;;;;;;;;;17.80;99.90;;;;;;5006784;28;19921;-59
2022/04/14 12:43:23;;;;;;;;;;;17.80;99.90;;;;;;5006407;28;20334;-60
2022/04/14 12:45:49;;;;;;;;;;;17.90;99.90;;;;;;5006808;28;19920;-60
2022/04/14 12:48:25;;;;;;;;;;;18.00;99.90;;;;;;5006370;28;19917;-60
2022/04/14 12:50:54;;;;;;;;;;;18.00;99.90;;;;;;5008141;28;19918;-59
2022/04/14 12:53:23;;;;;;;;;;;18.00;99.90;;;;;;5009313;28;20290;-60
2022/04/14 12:55:49;;;;;;;;;;;18.10;99.90;;;;;;5006657;28;19914;-60
2022/04/14 12:58:15;;;;;;;;;;;18.00;99.90;;;;;;5006916;28;19971;-60
2022/04/14 13:00:41;;;;;;;;;;;17.90;99.90;;;;;;5006491;28;19976;-58
2022/04/14 13:03:18;;;;;;;;;;;17.90;99.90;;;;;;5006687;28;19917;-60
2022/04/14 13:05:44;;;;;;;;;;;17.90;99.90;;;;;;5008035;28;20553;-60
2022/04/14 13:08:10;;;;;;;;;;;18.00;99.90;;;;;;5007810;28;20008;-60
2022/04/14 13:10:39;;;;;;;;;;;18.00;99.90;;;;;;5010338;28;20350;-60
2022/04/14 13:13:05;;;;;;;;;;;18.10;99.90;;;;;;5010153;28;20413;-60
2022/04/14 13:15:31;;;;;;;;;;;18.10;99.90;;;;;;5009831;28;19914;-58
2022/04/14 13:17:58;;;;;;;;;;;18.10;99.90;;;;;;5010409;28;20275;-59
2022/04/14 13:20:36;;;;;;;;;;;18.20;99.90;;;;;;5013180;28;19953;-58
2022/04/14 13:23:02;;;;;;;;;;;18.20;99.90;;;;;;5011101;28;20032;-58
2022/04/14 13:25:28;;;;;;;;;;;18.30;99.90;;;;;;5010137;28;19909;-59
2022/04/14 13:27:53;;;;;;;;;;;18.30;99.60;;;;;;5010314;28;19932;-58
2022/04/14 13:30:21;;;;;;;;;;;18.30;99.90;;;;;;5010402;28;19977;-59
2022/04/14 13:32:47;;;;;;;;;;;18.30;99.90;;;;;;5011947;28;19913;-58
2022/04/14 13:35:13;;;;;;;;;;;18.40;99.90;;;;;;5012013;28;19987;-59
2022/04/14 13:37:39;;;;;;;;;;;18.40;99.90;;;;;;5009739;28;20337;-59
2022/04/14 13:40:05;;;;;;;;;;;18.50;97.70;;;;;;5010049;28;19939;-59
2022/04/14 13:42:32;;;;;;;;;;;18.50;99.40;;;;;;5009963;28;19917;-59
2022/04/14 13:44:58;;;;;;;;;;;18.60;98.50;;;;;;5011223;28;19917;-59
2022/04/14 13:47:23;;;;;;;;;;;18.50;99.70;;;;;;5012441;28;19909;-59
2022/04/14 13:49:49;;;;;;;;;;;18.50;98.80;;;;;;5009223;28;19941;-59
2022/04/14 13:52:15;;;;;;;;;;;18.50;99.20;;;;;;5009584;28;20032;-59
2022/04/14 13:54:41;;;;;;;;;;;18.50;99.00;;;;;;5009997;28;20008;-59
2022/04/14 13:57:06;;;;;;;;;;;18.50;99.90;;;;;;5012054;28;20004;-57
2022/04/14 13:59:32;;;;;;;;;;;18.50;99.90;;;;;;5013379;28;20297;-57
2022/04/14 14:01:57;;;;;;;;;;;18.50;99.90;;;;;;5009095;28;19929;-59
2022/04/14 14:04:23;;;;;;;;;;;18.50;99.90;;;;;;5009347;28;20394;-58
2022/04/14 14:06:49;;;;;;;;;;;18.60;99.30;;;;;;5009537;28;19914;-58
2022/04/14 14:09:14;;;;;;;;;;;18.70;99.80;;;;;;5009743;28;19929;-57
2022/04/14 14:11:40;;;;;;;;;;;18.80;97.40;;;;;;5011395;28;19971;-58
2022/04/14 14:14:05;;;;;;;;;;;18.70;98.90;;;;;;5010476;28;20382;-58
2022/04/14 14:16:33;;;;;;;;;;;18.80;99.20;;;;;;5009133;28;20374;-58